Time;durP1;ratioP1;P1;durP2;ratioP2;P2;SDS_P1;SDS_P2;PMS_P1;PMS_P2;Temp;Humidity;BMP_temperature;BMP_pressure;BME280_temperature;BME280_humidity;BME280_pressure;Samples;Min_cycle;Max_cycle;Signal;HPM_P1;HPM_P2
2021/12/05 00:18:57;;;;;;;3.83;1.27;;;;;;;4.53;75.33;95354.03;5075040;28;20071;-77
2021/12/05 00:21:42;;;;;;;3.25;1.20;;;;;;;4.56;75.74;95372.75;5074841;28;20417;-78
2021/12/05 00:24:14;;;;;;;2.72;0.77;;;;;;;4.54;75.86;95380.66;5074982;28;20048;-77
2021/12/05 00:26:45;;;;;;;3.50;0.90;;;;;;;4.56;75.90;95375.34;5074921;28;20051;-78
2021/12/05 00:29:23;;;;;;;6.28;1.50;;;;;;;4.59;76.63;95378.38;5074948;28;20059;-78
2021/12/05 00:32:06;;;;;;;4.65;1.05;;;;;;;4.59;75.24;95387.88;5074881;28;20052;-77
2021/12/05 00:46:03;;;;;;;2.75;0.90;;;;;;;4.52;75.77;95396.31;5074855;28;20040;-79
2021/12/05 00:59:58;;;;;;;3.03;1.35;;;;;;;4.45;77.05;95400.59;5059637;28;20056;-78
2021/12/05 01:02:37;;;;;;;5.97;1.88;;;;;;;4.48;77.46;95407.19;5073652;28;20056;-78
2021/12/05 01:13:42;;;;;;;4.25;1.00;;;;;;;4.34;76.45;95403.56;5057617;28;20052;-76
2021/12/05 01:16:16;;;;;;;4.55;1.40;;;;;;;4.32;75.47;95402.94;5072777;28;20064;-78
2021/12/05 01:18:45;;;;;;;3.03;0.93;;;;;;;4.30;75.72;95407.47;5073343;28;20052;-78
2021/12/05 01:21:17;;;;;;;2.25;0.90;;;;;;;4.29;75.77;95404.09;5073305;28;20048;-77
2021/12/05 01:23:55;;;;;;;5.35;1.27;;;;;;;4.31;77.07;95406.50;5073058;28;20059;-77
2021/12/05 01:26:26;;;;;;;2.47;0.90;;;;;;;4.31;75.89;95416.84;5072973;28;20048;-79
2021/12/05 01:31:49;;;;;;;4.20;1.48;;;;;;;4.28;77.11;95419.75;5059247;28;20052;-77
2021/12/05 01:34:31;;;;;;;5.28;1.13;;;;;;;4.31;77.93;95417.63;5073184;28;20153;-78
2021/12/05 01:37:09;;;;;;;4.28;1.45;;;;;;;4.34;78.09;95421.66;5072755;28;20521;-77
2021/12/05 01:39:51;;;;;;;2.88;1.20;;;;;;;4.33;77.98;95417.47;5073392;28;20063;-78
2021/12/05 02:02:54;;;;;;;4.03;1.10;;;;;;;4.31;77.84;95411.69;5059636;28;20049;-78
2021/12/05 02:16:46;;;;;;;2.40;1.10;;;;;;;4.24;78.28;95403.00;5096376;27;20047;-78
2021/12/05 02:30:57;;;;;;;4.03;1.38;;;;;;;4.13;78.17;95383.53;5130974;27;20043;-78
2021/12/05 02:33:49;;;;;;;3.75;0.85;;;;;;;4.10;77.57;95383.88;5130808;27;20044;-81
2021/12/05 02:36:31;;;;;;;2.30;1.30;;;;;;;4.07;76.26;95389.41;5131203;27;20094;-76
2021/12/05 02:41:51;;;;;;;5.03;1.42;;;;;;;4.09;77.30;95383.09;5129825;27;20055;-77
2021/12/05 02:44:22;;;;;;;4.28;1.50;;;;;;;4.09;76.52;95384.88;5129717;27;20051;-77
2021/12/05 02:46:58;;;;;;;2.38;0.93;;;;;;;4.12;77.88;95387.09;5128982;27;20055;-77
2021/12/05 02:49:26;;;;;;;2.80;1.27;;;;;;;4.16;78.43;95378.06;5130762;27;20051;-78
2021/12/05 02:51:58;;;;;;;2.60;1.15;;;;;;;4.21;77.80;95380.13;5130257;27;20043;-78
2021/12/05 02:54:31;;;;;;;3.40;0.98;;;;;;;4.22;76.81;95377.38;5129787;27;20048;-77
2021/12/05 02:57:00;;;;;;;3.45;0.98;;;;;;;4.25;77.87;95383.97;5130861;27;20474;-77
2021/12/05 02:59:41;;;;;;;2.97;0.77;;;;;;;4.29;77.82;95377.47;5131169;27;20079;-80
2021/12/05 03:02:12;;;;;;;2.97;0.90;;;;;;;4.29;77.86;95377.47;5130927;27;20047;-78
2021/12/05 03:04:45;;;;;;;4.20;1.13;;;;;;;4.28;77.12;95366.34;5130692;27;20051;-79
2021/12/05 03:07:15;;;;;;;3.15;1.02;;;;;;;4.26;77.14;95372.66;5130363;27;20050;-80
2021/12/05 03:09:45;;;;;;;5.30;1.55;;;;;;;4.24;76.29;95369.44;5131066;27;20051;-79
2021/12/05 03:12:17;;;;;;;3.90;1.40;;;;;;;4.19;75.29;95366.56;5130459;27;20048;-78
2021/12/05 03:14:45;;;;;;;2.00;1.05;;;;;;;4.14;75.17;95359.34;5130440;27;20435;-77
2021/12/05 03:17:13;;;;;;;2.42;0.95;;;;;;;4.11;75.92;95357.09;5131048;27;20054;-80
2021/12/05 03:19:41;;;;;;;3.03;1.00;;;;;;;4.08;76.62;95360.03;5130947;27;20051;-77
2021/12/05 03:22:08;;;;;;;0.98;0.90;;;;;;;4.07;77.14;95355.88;5130930;27;20043;-78
2021/12/05 03:24:36;;;;;;;2.15;0.93;;;;;;;4.07;77.09;95358.44;5119882;27;20067;-79
2021/12/05 03:27:05;;;;;;;4.63;1.00;;;;;;;4.04;75.88;95359.56;5116772;28;20509;-80
2021/12/05 03:29:33;;;;;;;3.95;1.20;;;;;;;4.00;75.50;95358.31;5118956;28;20069;-78
2021/12/05 03:32:00;;;;;;;5.53;1.13;;;;;;;3.94;74.88;95364.16;5118638;27;20044;-78
2021/12/05 03:34:29;;;;;;;1.58;0.98;;;;;;;3.91;74.62;95369.66;5118086;28;20053;-79
2021/12/05 03:36:57;;;;;;;1.08;0.77;;;;;;;3.87;74.47;95374.34;5117844;28;20051;-80
2021/12/05 03:39:26;;;;;;;1.83;0.88;;;;;;;3.88;75.81;95373.38;5117947;28;20059;-77
2021/12/05 03:41:54;;;;;;;3.40;1.40;;;;;;;3.89;74.93;95366.44;5118196;28;20047;-80
2021/12/05 03:44:26;;;;;;;3.88;1.40;;;;;;;3.88;75.09;95364.84;5118952;28;20049;-79
2021/12/05 03:46:55;;;;;;;2.70;0.77;;;;;;;3.90;75.07;95368.06;5116554;28;20052;-78
2021/12/05 03:49:24;;;;;;;2.75;1.08;;;;;;;3.92;75.36;95366.09;5115996;28;20067;-79
2021/12/05 03:51:56;;;;;;;5.82;1.10;;;;;;;3.90;75.18;95368.84;5116202;28;20047;-77
2021/12/05 03:54:24;;;;;;;1.20;0.82;;;;;;;3.90;74.56;95378.38;5116197;27;20047;-79
2021/12/05 03:56:53;;;;;;;3.83;1.17;;;;;;;3.88;75.74;95370.00;5088183;22;20041;-78
2021/12/05 03:59:22;;;;;;;1.27;0.75;;;;;;;3.91;76.46;95370.47;5054627;28;20048;-78
2021/12/05 04:01:51;;;;;;;4.18;1.83;;;;;;;3.92;74.94;95366.09;5054924;28;20060;-78
2021/12/05 04:04:19;;;;;;;4.32;0.98;;;;;;;3.91;74.54;95378.22;5037184;28;20147;-78
2021/12/05 04:06:48;;;;;;;6.85;1.00;;;;;;;3.90;75.59;95379.16;5054669;28;20056;-78
2021/12/05 04:09:18;;;;;;;4.05;1.95;;;;;;;3.91;75.18;95385.13;5054601;28;20049;-78
2021/12/05 04:11:57;;;;;;;5.03;1.83;;;;;;;3.85;73.57;95385.81;5054327;28;20048;-78
2021/12/05 04:14:26;;;;;;;2.75;1.58;;;;;;;3.75;74.05;95388.59;5054525;28;20041;-78
2021/12/05 04:16:55;;;;;;;2.60;1.10;;;;;;;3.67;73.62;95396.38;5054247;28;20059;-78
2021/12/05 04:19:23;;;;;;;2.83;1.48;;;;;;;3.61;73.35;95392.69;5054160;28;20498;-78
2021/12/05 04:21:51;;;;;;;3.97;1.10;;;;;;;3.53;73.54;95390.16;5054232;28;20149;-78
2021/12/05 04:24:21;;;;;;;6.90;1.50;;;;;;;3.44;73.42;95398.91;5067451;28;20035;-78
2021/12/05 04:26:50;;;;;;;3.50;1.40;;;;;;;3.32;73.50;95400.22;5076310;28;20051;-78
2021/12/05 04:29:18;;;;;;;3.25;1.20;;;;;;;3.25;73.85;95400.06;5073691;28;20041;-78
2021/12/05 04:31:47;;;;;;;4.10;1.48;;;;;;;3.20;73.95;95403.16;5065652;28;20049;-78
2021/12/05 04:34:16;;;;;;;3.83;1.00;;;;;;;3.20;73.51;95398.00;5055351;28;20542;-78
2021/12/05 04:36:46;;;;;;;3.15;1.35;;;;;;;3.24;73.73;95401.84;5060708;28;20043;-78
2021/12/05 04:39:14;;;;;;;4.20;1.35;;;;;;;3.27;74.17;95404.09;5073657;28;20498;-78
2021/12/05 04:41:43;;;;;;;2.65;1.23;;;;;;;3.32;74.45;95395.06;5068300;28;20059;-78
2021/12/05 04:44:11;;;;;;;5.68;1.83;;;;;;;3.36;74.01;95394.56;5054117;28;20071;-78
2021/12/05 04:46:39;;;;;;;3.88;1.67;;;;;;;3.36;74.06;95398.91;5053848;28;20056;-78
2021/12/05 04:49:08;;;;;;;2.42;1.23;;;;;;;3.37;75.76;95400.50;5054273;28;20414;-78
2021/12/05 04:51:40;;;;;;;4.38;1.67;;;;;;;3.38;74.41;95399.56;5054127;28;20048;-77
2021/12/05 04:54:10;;;;;;;2.97;1.23;;;;;;;3.33;74.07;95396.69;5054205;28;20049;-78
2021/12/05 04:56:38;;;;;;;4.53;1.42;;;;;;;3.27;74.32;95398.94;5053466;28;20045;-77
2021/12/05 04:59:12;;;;;;;3.47;1.42;;;;;;;3.30;75.97;95403.78;5053746;28;20053;-78
2021/12/05 05:01:41;;;;;;;2.50;1.25;;;;;;;3.37;75.25;95396.19;5053905;28;20044;-78
2021/12/05 05:04:19;;;;;;;2.45;1.15;;;;;;;3.36;74.16;95401.50;5053896;28;20494;-78
2021/12/05 05:06:48;;;;;;;2.85;0.80;;;;;;;3.26;74.12;95404.28;5053435;28;20128;-78
2021/12/05 05:09:15;;;;;;;3.33;1.55;;;;;;;3.20;73.97;95399.78;5053844;28;20059;-78
2021/12/05 05:11:43;;;;;;;4.45;1.85;;;;;;;3.11;73.58;95403.34;5053816;28;20316;-78
2021/12/05 05:14:12;;;;;;;2.13;1.00;;;;;;;2.99;73.87;95408.03;5053224;28;20499;-77
2021/12/05 05:16:40;;;;;;;1.63;1.08;;;;;;;2.91;74.11;95402.88;5052936;28;20400;-78
2021/12/05 05:19:10;;;;;;;8.77;1.63;;;;;;;2.86;74.14;95404.19;5053717;28;20425;-78
2021/12/05 05:21:44;;;;;;;2.80;1.15;;;;;;;2.88;74.25;95406.59;5053606;28;20056;-78
2021/12/05 05:24:39;;;;;;;3.63;1.33;;;;;;;2.86;73.77;95409.34;5053316;28;20118;-78
2021/12/05 05:27:42;;;;;;;6.70;1.42;;;;;;;2.83;73.92;95407.09;5053217;28;20049;-78
2021/12/05 05:30:37;;;;;;;3.40;1.27;;;;;;;2.81;73.92;95409.00;5053040;28;20483;-78
2021/12/05 05:47:04;;;;;;;2.93;1.07;;;;;;;2.51;74.14;95400.16;5049778;28;20049;-78
2021/12/05 05:49:48;;;;;;;3.50;1.08;;;;;;;2.47;74.28;95404.03;5053364;28;20353;-78
2021/12/05 05:52:17;;;;;;;6.13;2.17;;;;;;;2.42;74.91;95399.38;5053068;28;20049;-78
2021/12/05 05:54:48;;;;;;;2.55;0.85;;;;;;;2.41;74.49;95397.78;5053186;28;20048;-78
2021/12/05 05:57:23;;;;;;;5.25;1.25;;;;;;;2.43;74.69;95403.56;5052262;28;20430;-78
2021/12/05 06:00:00;;;;;;;3.20;1.00;;;;;;;2.45;74.92;95396.50;5053085;28;20055;-77
2021/12/05 06:05:15;;;;;;;7.32;1.65;;;;;;;2.51;75.72;95400.16;5052567;28;20124;-78
2021/12/05 06:07:44;;;;;;;3.67;1.02;;;;;;;2.59;75.81;95407.09;5052159;28;20053;-78
2021/12/05 06:10:14;;;;;;;5.75;1.00;;;;;;;2.64;74.98;95407.41;5052461;28;20059;-78
2021/12/05 06:12:44;;;;;;;3.80;1.33;;;;;;;2.71;74.99;95400.66;5052055;28;20063;-77
2021/12/05 06:15:14;;;;;;;3.33;1.20;;;;;;;2.78;76.02;95406.78;5052334;28;20053;-77
2021/12/05 06:17:42;;;;;;;4.20;2.05;;;;;;;2.89;76.23;95406.44;5052611;28;20687;-78
2021/12/05 06:20:13;;;;;;;3.63;1.50;;;;;;;2.95;75.70;95409.31;5052620;28;20041;-77
2021/12/05 06:22:40;;;;;;;2.70;1.42;;;;;;;2.95;74.92;95414.47;5052321;28;20055;-77
2021/12/05 06:25:13;;;;;;;3.05;1.40;;;;;;;2.86;74.09;95411.94;5052159;28;20049;-78
2021/12/05 06:27:41;;;;;;;2.50;1.40;;;;;;;2.81;74.67;95414.16;5052444;28;20116;-77
2021/12/05 06:30:16;;;;;;;6.55;2.53;;;;;;;2.78;74.86;95414.50;5052336;28;20517;-78
2021/12/05 06:38:39;;;;;;;4.60;1.90;;;;;;;2.92;74.86;95425.09;5051890;28;20581;-75
2021/12/05 06:41:13;;;;;;;7.47;2.10;;;;;;;2.98;75.64;95424.47;5049092;28;20041;-75
2021/12/05 06:46:48;;;;;;;3.83;1.33;;;;;;;3.13;75.76;95427.97;5050098;28;20053;-75
2021/12/05 06:49:15;;;;;;;2.85;1.77;;;;;;;3.19;76.41;95427.31;5049866;28;20041;-75
2021/12/05 06:51:43;;;;;;;2.45;1.30;;;;;;;3.24;76.04;95427.63;5051571;28;20052;-75
2021/12/05 06:54:10;;;;;;;10.32;3.25;;;;;;;3.25;75.49;95436.94;5058461;28;20048;-75
2021/12/05 06:56:38;;;;;;;3.35;1.65;;;;;;;3.25;75.42;95431.81;5054054;28;20067;-74
2021/12/05 06:59:05;;;;;;;8.50;1.63;;;;;;;3.29;75.21;95430.50;5057395;28;20049;-74
2021/12/05 07:01:33;;;;;;;3.42;1.60;;;;;;;3.32;74.80;95431.94;5055540;28;20056;-75
2021/12/05 07:04:09;;;;;;;5.10;1.90;;;;;;;3.34;75.36;95435.16;5055201;28;20419;-74
2021/12/05 07:06:40;;;;;;;4.35;1.90;;;;;;;3.40;75.75;95441.44;5054990;28;20406;-74
2021/12/05 07:09:11;;;;;;;3.00;1.50;;;;;;;3.43;75.37;95433.38;5062331;28;20049;-74
2021/12/05 07:11:47;;;;;;;2.95;1.58;;;;;;;3.39;74.69;95432.91;5078291;28;20033;-74
2021/12/05 07:14:34;;;;;;;5.18;1.45;;;;;;;3.39;74.57;95439.81;5078236;28;20051;-75
2021/12/05 07:17:07;;;;;;;3.75;1.48;;;;;;;3.37;74.81;95434.84;5058224;28;20049;-74
2021/12/05 07:19:51;;;;;;;5.05;1.77;;;;;;;3.41;76.09;95435.31;5058523;28;20041;-75
2021/12/05 07:22:23;;;;;;;3.85;1.60;;;;;;;3.43;75.37;95438.53;5068079;28;20049;-75
2021/12/05 07:24:59;;;;;;;3.28;1.48;;;;;;;3.41;74.46;95437.88;5078293;28;20152;-74
2021/12/05 07:41:23;;;;;;;3.85;2.92;;;;;;;3.11;74.74;95442.00;5074824;28;20063;-75
2021/12/05 07:43:51;;;;;;;6.88;2.50;;;;;;;3.12;74.46;95453.91;5065904;28;20053;-74
2021/12/05 07:46:19;;;;;;;4.07;2.47;;;;;;;3.09;74.18;95455.03;5060106;28;20041;-74
2021/12/05 07:48:47;;;;;;;5.03;2.25;;;;;;;3.04;74.68;95459.84;5070444;28;20031;-75
2021/12/05 07:51:25;;;;;;;3.33;2.30;;;;;;;3.00;74.04;95456.03;5078720;28;20051;-74
2021/12/05 07:54:02;;;;;;;3.40;2.65;;;;;;;2.95;74.36;95455.69;5076936;28;20052;-75
2021/12/05 07:56:41;;;;;;;11.70;4.80;;;;;;;2.89;74.60;95455.38;5076006;28;20073;-74
2021/12/05 07:59:22;;;;;;;10.15;4.85;;;;;;;2.88;74.44;95451.16;5076594;28;20049;-75
2021/12/05 08:15:45;;;;;;;7.50;4.18;;;;;;;3.13;74.29;95463.22;5054266;28;20136;-75
2021/12/05 08:18:12;;;;;;;8.68;3.90;;;;;;;3.18;74.67;95466.13;5054396;28;20414;-74
2021/12/05 08:20:43;;;;;;;7.15;3.72;;;;;;;3.22;74.43;95463.06;5054237;28;20045;-74
2021/12/05 08:23:14;;;;;;;10.85;5.35;;;;;;;3.26;73.54;95458.41;5054119;28;20060;-75
2021/12/05 08:25:48;;;;;;;19.20;10.05;;;;;;;3.26;73.58;95458.41;5054048;28;20049;-75
2021/12/05 08:28:29;;;;;;;10.00;5.05;;;;;;;3.23;73.42;95459.50;5054008;28;20064;-74
2021/12/05 08:31:08;;;;;;;8.25;4.28;;;;;;;3.22;73.45;95463.06;5054291;28;20049;-75
2021/12/05 08:33:59;;;;;;;6.03;3.22;;;;;;;3.27;73.96;95455.63;5054117;28;20517;-74
2021/12/05 08:42:49;;;;;;;;;;;;;;;3.33;73.08;95448.22;5131628;28;20055;-74
2021/12/05 09:27:19;;;;;;;7.00;3.38;;;;;;;3.88;71.54;95437.06;5108739;27;20047;-74
2021/12/05 09:30:23;;;;;;;6.70;2.53;;;;;;;3.90;70.72;95435.13;5130266;27;20531;-74
2021/12/05 09:38:54;;;;;;;3.40;1.85;;;;;;;4.12;70.86;95443.88;5108279;27;20076;-74
2021/12/05 10:09:24;;;;;;;4.55;1.30;;;;;;;5.21;71.03;95423.03;5034122;28;20049;-74
2021/12/05 10:12:04;;;;;;;3.13;1.60;;;;;;;5.27;68.43;95423.13;5032915;28;20422;-74
2021/12/05 10:14:46;;;;;;;4.45;1.77;;;;;;;5.32;67.46;95428.56;5034027;28;20050;-74
2021/12/05 10:34:19;;;;;;;4.82;2.90;;;;;;;6.47;63.72;95409.03;5034656;28;20053;-74
2021/12/05 10:37:05;;;;;;;8.43;4.78;;;;;;;6.70;65.50;95413.22;5035496;28;20050;-74
2021/12/05 10:39:33;;;;;;;2.67;1.60;;;;;;;6.88;63.50;95416.16;5035163;28;20060;-75
2021/12/05 10:42:12;;;;;;;5.93;2.08;;;;;;;7.07;63.88;95417.28;5035480;28;20080;-74
2021/12/05 10:44:44;;;;;;;1.92;1.25;;;;;;;7.28;65.24;95406.06;5035250;28;20060;-74
2021/12/05 10:47:12;;;;;;;2.65;1.00;;;;;;;7.45;62.75;95410.94;5034791;28;20049;-74
2021/12/05 10:49:40;;;;;;;1.90;1.30;;;;;;;7.68;64.67;95410.69;5036605;28;20041;-74
2021/12/05 10:52:13;;;;;;;1.48;0.90;;;;;;;7.91;63.95;95411.16;5036181;28;20545;-74
2021/12/05 10:54:41;;;;;;;1.23;0.65;;;;;;;8.21;63.18;95406.47;5041246;28;20060;-73
2021/12/05 10:57:12;;;;;;;96.50;53.35;;;;;;;8.52;62.96;95407.75;5050475;28;20060;-73
2021/12/05 10:59:41;;;;;;;84.05;51.55;;;;;;;8.93;62.75;95408.59;5050505;28;20049;-73
2021/12/05 11:02:24;;;;;;;8.88;4.97;;;;;;;9.29;57.31;95405.53;5044852;28;20514;-73
2021/12/05 11:04:52;;;;;;;2.30;1.63;;;;;;;9.68;56.72;95396.84;5038071;28;20056;-75
2021/12/05 11:07:23;;;;;;;3.25;1.45;;;;;;;10.39;55.94;95396.97;5037543;28;20052;-75
2021/12/05 11:09:54;;;;;;;1.27;1.08;;;;;;;11.04;54.24;95410.56;5037289;28;20045;-76
2021/12/05 11:12:24;;;;;;;1.25;0.98;;;;;;;11.74;54.13;95406.84;5036128;28;20060;-75
2021/12/05 11:14:54;;;;;;;4.93;1.33;;;;;;;12.26;52.45;95404.66;5035475;28;20527;-76
2021/12/05 11:17:24;;;;;;;2.00;0.80;;;;;;;12.74;50.45;95402.97;5035177;28;20049;-76
2021/12/05 11:19:55;;;;;;;1.33;0.60;;;;;;;12.77;49.95;95403.34;5036350;28;20045;-75
2021/12/05 11:22:27;;;;;;;3.83;1.52;;;;;;;12.51;49.38;95398.50;5035023;28;20053;-77
2021/12/05 11:24:57;;;;;;;0.75;0.70;;;;;;;12.34;51.02;95408.78;5034591;28;20525;-77
2021/12/05 11:27:29;;;;;;;2.75;1.02;;;;;;;12.16;51.28;95407.00;5034289;28;20053;-77
2021/12/05 11:30:03;;;;;;;5.00;2.15;;;;;;;12.80;51.04;95409.94;5034505;28;20049;-77
2021/12/05 11:32:37;;;;;;;1.98;1.00;;;;;;;13.54;48.82;95406.94;5034426;28;20049;-76
2021/12/05 11:35:14;;;;;;;2.40;0.93;;;;;;;14.22;47.01;95402.81;5034907;28;20060;-77
2021/12/05 11:38:04;;;;;;;2.47;1.15;;;;;;;13.68;47.42;95400.41;5034743;28;20053;-77
2021/12/05 11:40:53;;;;;;;2.70;1.00;;;;;;;14.55;43.70;95398.69;5035359;28;20052;-77
2021/12/05 11:43:24;;;;;;;2.85;1.10;;;;;;;15.25;44.48;95406.13;5034830;28;20045;-77
2021/12/05 11:46:00;;;;;;;3.53;1.00;;;;;;;15.46;41.06;95406.44;5034615;28;20080;-77
2021/12/05 11:48:30;;;;;;;2.75;0.80;;;;;;;14.84;40.52;95400.22;5034145;28;20081;-77
2021/12/05 11:50:58;;;;;;;4.47;1.10;;;;;;;13.72;42.71;95398.16;5014747;28;20054;-76
2021/12/05 11:53:40;;;;;;;3.17;0.80;;;;;;;12.78;46.07;95397.06;5014210;28;20050;-76
2021/12/05 11:56:10;;;;;;;2.67;1.08;;;;;;;12.59;48.74;95392.94;5021982;28;20045;-76
2021/12/05 11:58:39;;;;;;;3.78;1.17;;;;;;;13.95;47.11;95398.09;5033628;28;20053;-77
2021/12/05 12:01:09;;;;;;;1.80;0.65;;;;;;;15.34;43.71;95401.25;5033521;28;20046;-77
2021/12/05 12:03:38;;;;;;;0.82;0.50;;;;;;;14.83;43.84;95406.53;5034110;28;20081;-76
2021/12/05 12:06:07;;;;;;;2.33;0.80;;;;;;;13.77;46.21;95400.84;5033458;28;20056;-77
2021/12/05 12:08:36;;;;;;;2.95;1.23;;;;;;;12.77;48.72;95394.69;5033600;28;20057;-76
2021/12/05 12:11:04;;;;;;;3.80;1.77;;;;;;;11.91;49.74;95400.06;5032893;28;20046;-76
2021/12/05 12:13:35;;;;;;;3.72;0.90;;;;;;;11.21;51.33;95397.75;5033119;28;20395;-76
2021/12/05 12:16:07;;;;;;;2.33;1.73;;;;;;;10.68;52.95;95390.34;5033647;28;20049;-77
2021/12/05 12:18:39;;;;;;;1.98;0.90;;;;;;;10.23;53.18;95388.63;5033449;28;20049;-76
2021/12/05 12:21:13;;;;;;;2.50;1.20;;;;;;;9.85;53.19;95391.97;5033462;28;20057;-75
2021/12/05 12:23:42;;;;;;;3.50;1.10;;;;;;;9.56;56.13;95388.09;5033134;28;20053;-74
2021/12/05 12:26:11;;;;;;;3.70;0.85;;;;;;;9.33;56.73;95393.72;5032189;28;20061;-75
2021/12/05 12:28:40;;;;;;;1.63;1.20;;;;;;;9.17;56.98;95389.75;5032315;28;20205;-75
2021/12/05 12:31:12;;;;;;;5.65;3.00;;;;;;;9.08;58.95;95394.38;5032394;28;20488;-75
2021/12/05 12:33:43;;;;;;;5.65;2.47;;;;;;;8.99;58.94;95393.00;5032807;28;20064;-73
2021/12/05 12:36:11;;;;;;;4.35;1.77;;;;;;;8.95;59.28;95396.19;5032304;28;20056;-76
2021/12/05 12:38:42;;;;;;;3.22;1.48;;;;;;;8.90;60.36;95391.59;5032500;28;20498;-75
2021/12/05 12:41:17;;;;;;;2.08;1.10;;;;;;;8.83;60.20;95396.81;5033741;28;20103;-75
2021/12/05 12:43:52;;;;;;;1.95;1.02;;;;;;;8.71;60.23;95406.19;5041833;28;20060;-75
2021/12/05 12:46:27;;;;;;;1.92;1.10;;;;;;;8.56;62.37;95403.75;5041421;28;20057;-73
2021/12/05 12:48:58;;;;;;;4.65;1.95;;;;;;;8.42;61.71;95395.16;5039489;28;20064;-77
2021/12/05 12:51:33;;;;;;;3.70;1.20;;;;;;;8.33;63.29;95403.28;5040457;28;20049;-77
2021/12/05 12:54:07;;;;;;;1.88;1.27;;;;;;;8.21;63.78;95396.06;5040040;28;20080;-75
2021/12/05 12:56:39;;;;;;;3.08;1.05;;;;;;;8.17;62.99;95400.06;5033195;28;20367;-74
2021/12/05 12:59:10;;;;;;;2.10;1.10;;;;;;;8.10;61.31;95403.66;5032991;28;20053;-74
2021/12/05 13:02:04;;;;;;;2.25;1.10;;;;;;;8.03;61.91;95408.81;5032736;28;20049;-74
2021/12/05 13:05:02;;;;;;;1.77;0.98;;;;;;;7.94;61.08;95407.41;5032504;28;20053;-75
2021/12/05 13:10:30;;;;;;;1.67;1.00;;;;;;;7.84;62.70;95410.34;4985893;28;20046;-74
2021/12/05 13:13:04;;;;;;;2.78;1.00;;;;;;;7.79;62.64;95403.13;5032208;28;20061;-74
2021/12/05 13:15:38;;;;;;;2.67;1.00;;;;;;;7.77;63.50;95410.31;5032323;28;20446;-74
2021/12/05 13:18:29;;;;;;;2.88;1.00;;;;;;;7.75;61.30;95412.28;5031730;28;20446;-74
2021/12/05 13:21:01;;;;;;;3.67;1.27;;;;;;;7.72;63.80;95410.09;5032100;28;20041;-74
2021/12/05 13:23:36;;;;;;;3.78;2.03;;;;;;;7.66;63.03;95403.06;5032037;28;20056;-74
2021/12/05 13:26:19;;;;;;;5.88;3.17;;;;;;;7.61;63.25;95410.66;5034993;28;20050;-75
2021/12/05 13:28:51;;;;;;;1.33;1.13;;;;;;;7.55;61.49;95407.00;5035951;28;20053;-74
2021/12/05 13:31:56;;;;;;;3.20;1.30;;;;;;;7.50;59.81;95409.38;5035452;28;20052;-75
2021/12/05 13:34:33;;;;;;;2.00;1.27;;;;;;;7.43;59.35;95406.75;5035365;28;20049;-75
2021/12/05 13:37:24;;;;;;;0.73;0.73;;;;;;;7.35;58.33;95406.91;5035069;28;20070;-75
2021/12/05 13:39:54;;;;;;;3.20;1.70;;;;;;;7.30;59.52;95406.66;5035683;28;20054;-75
2021/12/05 13:42:25;;;;;;;3.55;1.17;;;;;;;7.25;58.60;95406.44;5035694;28;20434;-74
2021/12/05 13:45:09;;;;;;;4.05;2.25;;;;;;;7.21;60.25;95403.44;5037040;28;20057;-74
2021/12/05 13:47:41;;;;;;;1.38;0.80;;;;;;;7.21;62.84;95408.63;5036732;28;20053;-74
2021/12/05 13:50:32;;;;;;;2.63;1.30;;;;;;;7.26;62.48;95410.66;5036460;28;20116;-74
2021/12/05 13:53:20;;;;;;;1.92;1.00;;;;;;;7.21;60.80;95411.22;5035911;28;20061;-74
2021/12/05 13:56:04;;;;;;;3.60;1.65;;;;;;;7.11;57.92;95415.94;5034844;28;20060;-74
2021/12/05 13:58:41;;;;;;;3.00;1.85;;;;;;;6.95;60.43;95416.19;5035519;28;20045;-74
2021/12/05 14:01:14;;;;;;;31.63;17.73;;;;;;;6.89;62.32;95415.16;5035127;28;20049;-75
2021/12/05 14:04:08;;;;;;;8.57;4.22;;;;;;;6.86;60.68;95418.13;5036183;28;20054;-76
2021/12/05 14:06:47;;;;;;;6.22;3.90;;;;;;;6.80;62.95;95417.09;5034369;28;20049;-77
2021/12/05 14:09:18;;;;;;;6.65;3.67;;;;;;;6.78;65.55;95416.47;5035216;28;20057;-76
2021/12/05 14:11:50;;;;;;;4.22;1.52;;;;;;;6.77;61.14;95420.03;5035370;28;20058;-74
2021/12/05 14:14:21;;;;;;;2.22;1.23;;;;;;;6.70;60.26;95423.59;5035210;28;20422;-73
2021/12/05 14:16:52;;;;;;;1.52;1.10;;;;;;;6.70;64.55;95428.78;5034438;28;20049;-74
2021/12/05 14:19:24;;;;;;;0.80;0.80;;;;;;;6.69;62.87;95427.16;5034809;28;20060;-77
2021/12/05 14:21:56;;;;;;;1.83;1.02;;;;;;;6.66;62.59;95427.53;5034524;28;20096;-75
2021/12/05 14:24:28;;;;;;;4.05;1.15;;;;;;;6.62;63.76;95428.88;5034486;28;20053;-75
2021/12/05 14:26:58;;;;;;;1.23;0.80;;;;;;;6.54;62.71;95428.03;5034143;28;20046;-74
2021/12/05 14:29:28;;;;;;;1.88;0.75;;;;;;;6.46;61.23;95428.16;5034592;28;20154;-75
2021/12/05 14:32:01;;;;;;;3.85;1.23;;;;;;;6.37;63.58;95440.41;5034387;28;20049;-74
2021/12/05 14:34:29;;;;;;;3.13;0.98;;;;;;;6.29;64.22;95432.75;5034811;28;20049;-74
2021/12/05 14:37:01;;;;;;;2.45;1.10;;;;;;;6.23;64.78;95428.31;5033939;28;20046;-74
2021/12/05 14:39:31;;;;;;;2.67;0.80;;;;;;;6.19;64.75;95435.66;5034228;28;20064;-73
2021/12/05 14:42:01;;;;;;;6.13;2.08;;;;;;;6.16;64.64;95440.38;5033958;28;20050;-74
2021/12/05 14:44:30;;;;;;;4.30;1.85;;;;;;;6.12;63.29;95442.56;5034221;28;20499;-74
2021/12/05 14:47:04;;;;;;;3.58;1.90;;;;;;;6.06;64.19;95448.44;5033692;28;20049;-74
2021/12/05 14:49:35;;;;;;;2.85;1.67;;;;;;;6.01;64.79;95447.38;5033956;28;20057;-75
2021/12/05 14:52:04;;;;;;;3.67;2.65;;;;;;;5.95;64.86;95446.34;5034040;28;20042;-75
2021/12/05 14:54:36;;;;;;;3.00;1.55;;;;;;;5.89;64.45;95453.00;5034177;28;20068;-75
2021/12/05 14:57:14;;;;;;;;;;;;;;;5.90;64.12;95458.97;5033554;28;20053;-75
2021/12/05 14:59:44;;;;;;;2.25;1.00;;;;;;;5.82;63.80;95459.09;5033502;28;19987;-75
2021/12/05 15:02:15;;;;;;;1.10;1.00;;;;;;;5.77;64.97;95454.41;5033346;28;20056;-75
2021/12/05 15:04:48;;;;;;;5.25;1.45;;;;;;;5.78;66.17;95466.38;5034127;28;20049;-74
2021/12/05 15:07:18;;;;;;;5.25;1.85;;;;;;;5.76;64.77;95468.34;5033394;28;20060;-75
2021/12/05 15:09:48;;;;;;;2.65;1.67;;;;;;;5.78;67.84;95477.53;5034002;28;20041;-74
2021/12/05 15:12:23;;;;;;;3.13;1.98;;;;;;;5.85;68.53;95480.22;5033876;28;20046;-74
2021/12/05 15:14:54;;;;;;;1.88;1.30;;;;;;;5.91;67.79;95483.88;5034114;28;20049;-77
2021/12/05 15:17:26;;;;;;;1.90;1.50;;;;;;;5.90;69.45;95484.84;5036983;28;20136;-77
2021/12/05 15:19:59;;;;;;;2.60;0.90;;;;;;;5.91;67.45;95484.66;5033606;28;20056;-75
2021/12/05 15:22:41;;;;;;;2.45;1.40;;;;;;;5.90;67.93;95490.03;5033506;28;20045;-75
2021/12/05 15:25:11;;;;;;;2.03;1.08;;;;;;;5.90;68.48;95510.72;5034298;28;20042;-75
2021/12/05 15:27:39;;;;;;;2.13;0.80;;;;;;;5.87;68.55;95504.13;5049251;28;20336;-73
2021/12/05 15:30:15;;;;;;;1.85;1.08;;;;;;;5.84;69.65;95508.84;5050609;28;20053;-74
2021/12/05 15:32:46;;;;;;;1.77;0.70;;;;;;;5.78;69.81;95513.75;5047742;28;20132;-73
2021/12/05 15:35:16;;;;;;;0.93;0.80;;;;;;;5.67;67.92;95518.59;5037186;28;20053;-75
2021/12/05 15:37:48;;;;;;;1.80;0.68;;;;;;;5.54;68.69;95521.78;5035595;28;20056;-74
2021/12/05 15:40:15;;;;;;;1.13;1.02;;;;;;;5.48;68.91;95525.06;5035379;28;20053;-75
2021/12/05 15:42:43;;;;;;;2.60;0.60;;;;;;;5.37;68.95;95537.44;5034057;28;20052;-75
2021/12/05 15:45:13;;;;;;;3.17;1.85;;;;;;;5.30;69.35;95535.75;5033513;28;20053;-75
2021/12/05 15:47:46;;;;;;;7.78;4.10;;;;;;;5.20;68.79;95538.56;5032595;28;20553;-75
2021/12/05 15:50:15;;;;;;;6.80;2.35;;;;;;;5.06;68.99;95541.91;5032814;28;20061;-75
2021/12/05 15:52:47;;;;;;;0.63;0.40;;;;;;;4.91;68.55;95544.44;5035244;28;20045;-73
2021/12/05 15:55:18;;;;;;;1.13;1.00;;;;;;;4.81;71.23;95549.00;5033199;28;20057;-73
2021/12/05 15:57:47;;;;;;;0.95;0.60;;;;;;;4.69;69.59;95543.44;5032742;28;20049;-74
2021/12/05 16:00:21;;;;;;;4.97;2.00;;;;;;;4.50;69.08;95542.91;5032998;28;20052;-74
2021/12/05 16:02:57;;;;;;;5.93;4.00;;;;;;;4.33;69.22;95543.97;5012678;28;20046;-74
2021/12/05 16:05:25;;;;;;;5.65;3.97;;;;;;;4.18;69.91;95545.66;5013207;28;20054;-76
2021/12/05 16:08:02;;;;;;;5.00;3.50;;;;;;;4.00;70.28;95554.44;5046760;23;20048;-77
2021/12/05 16:10:31;;;;;;;3.90;2.67;;;;;;;3.85;70.60;95563.81;5053370;28;20053;-77
2021/12/05 16:12:58;;;;;;;2.58;2.35;;;;;;;3.68;70.44;95566.44;5052779;28;20045;-77
2021/12/05 16:15:28;;;;;;;5.75;4.13;;;;;;;3.55;71.07;95555.81;5052807;28;20710;-75
2021/12/05 16:18:01;;;;;;;6.35;4.63;;;;;;;3.44;71.79;95543.25;5052447;28;20060;-75
2021/12/05 16:20:36;;;;;;;3.05;2.17;;;;;;;3.36;72.35;95551.00;5052157;28;20056;-76
2021/12/05 16:23:22;;;;;;;2.78;2.25;;;;;;;3.27;72.73;95555.34;5052658;28;20040;-78